createdAt,value
2019-02-17T00:00:08.307Z,20.90
2019-02-17T00:02:38.650Z,23.33
2019-02-17T00:05:09.008Z,25.57
2019-02-17T00:07:39.260Z,30.83
2019-02-17T00:10:09.551Z,26.43
2019-02-17T00:12:39.815Z,23.47
2019-02-17T00:15:10.111Z,14.23
2019-02-17T00:17:40.748Z,13.03
2019-02-17T00:20:11.157Z,11.40
2019-02-17T00:22:41.428Z,14.00
2019-02-17T00:25:11.839Z,11.73
2019-02-17T00:27:42.181Z,12.53
2019-02-17T00:30:12.500Z,11.37
2019-02-17T00:32:42.844Z,13.10
2019-02-17T00:35:13.127Z,12.10
2019-02-17T00:37:43.467Z,10.70
2019-02-17T00:40:13.821Z,9.80
2019-02-17T00:42:44.069Z,11.03
2019-02-17T00:45:14.358Z,12.20
2019-02-17T00:47:44.692Z,11.10
2019-02-17T00:50:14.968Z,12.27
2019-02-17T00:52:45.259Z,11.57
2019-02-17T00:55:15.549Z,11.13
2019-02-17T00:57:45.781Z,11.33
2019-02-17T01:00:16.175Z,11.70
2019-02-17T01:02:46.505Z,13.80
2019-02-17T01:05:16.776Z,12.17
2019-02-17T01:07:47.027Z,14.47
2019-02-17T01:10:17.334Z,13.40
2019-02-17T01:12:47.669Z,13.93
2019-02-17T01:15:17.964Z,17.70
2019-02-17T01:17:48.299Z,13.03
2019-02-17T01:20:19.284Z,12.90
2019-02-17T01:22:49.617Z,13.27
2019-02-17T01:25:19.892Z,12.70
2019-02-17T01:27:50.139Z,11.57
2019-02-17T01:30:20.457Z,10.90
2019-02-17T01:32:50.751Z,8.83
2019-02-17T01:35:21.043Z,8.20
2019-02-17T01:37:51.385Z,7.70
2019-02-17T01:40:21.663Z,7.97
2019-02-17T01:42:51.900Z,6.93
2019-02-17T01:45:22.969Z,6.43
2019-02-17T01:47:53.294Z,6.57
2019-02-17T01:50:23.592Z,6.77
2019-02-17T01:52:53.838Z,6.87
2019-02-17T01:55:24.139Z,4.87
2019-02-17T01:57:54.470Z,3.97
2019-02-17T02:00:24.789Z,5.13
2019-02-17T02:02:55.017Z,6.33
2019-02-17T02:05:25.306Z,6.00
2019-02-17T02:07:55.647Z,6.13
2019-02-17T02:10:25.943Z,7.23
2019-02-17T02:12:56.210Z,7.87
2019-02-17T02:15:26.462Z,10.97
2019-02-17T02:17:57.030Z,10.13
2019-02-17T02:20:28.398Z,9.20
2019-02-17T02:22:58.737Z,9.00
2019-02-17T02:25:29.133Z,8.03
2019-02-17T02:27:59.473Z,10.67
2019-02-17T02:30:29.773Z,9.43
2019-02-17T02:33:00.194Z,9.87
2019-02-17T02:35:30.472Z,10.33
2019-02-17T02:38:00.732Z,11.23
2019-02-17T02:40:31.019Z,10.23
2019-02-17T02:43:01.358Z,9.97
2019-02-17T02:45:31.639Z,15.07
2019-02-17T02:48:01.868Z,8.70
2019-02-17T02:50:32.156Z,7.00
2019-02-17T02:53:02.430Z,9.77
2019-02-17T02:55:32.718Z,10.60
2019-02-17T02:58:03.126Z,11.53
2019-02-17T03:00:33.430Z,10.47
2019-02-17T03:03:03.671Z,9.23
2019-02-17T03:05:35.051Z,11.33
2019-02-17T03:08:05.377Z,9.03
2019-02-17T03:10:35.641Z,9.30
2019-02-17T03:13:05.869Z,6.80
2019-02-17T03:15:36.135Z,8.53
2019-02-17T03:18:06.958Z,9.47
2019-02-17T03:20:37.334Z,10.00
2019-02-17T03:23:07.646Z,8.23
2019-02-17T03:25:38.083Z,11.67
2019-02-17T03:28:08.424Z,10.73
2019-02-17T03:30:38.686Z,8.90
2019-02-17T03:33:08.928Z,10.97
2019-02-17T03:35:39.242Z,9.93
2019-02-17T03:38:09.585Z,9.90
2019-02-17T03:40:40.223Z,7.87
2019-02-17T03:43:10.444Z,10.57
2019-02-17T03:45:40.727Z,9.40
2019-02-17T03:48:11.077Z,11.80
2019-02-17T03:50:41.365Z,10.00
2019-02-17T03:53:11.607Z,10.80
2019-02-17T03:55:41.902Z,10.37
2019-02-17T03:58:12.239Z,10.10
2019-02-17T04:00:42.508Z,12.23
2019-02-17T04:03:12.739Z,10.50
2019-02-17T04:05:43.022Z,9.27
2019-02-17T04:08:13.368Z,9.10
2019-02-17T04:10:43.662Z,12.20
2019-02-17T04:13:13.957Z,10.40
2019-02-17T04:15:44.249Z,10.83
2019-02-17T04:18:14.606Z,11.77
2019-02-17T04:20:45.353Z,13.30
2019-02-17T04:23:15.671Z,11.70
2019-02-17T04:25:45.937Z,11.60
2019-02-17T04:28:16.302Z,12.50
2019-02-17T04:30:46.604Z,10.53
2019-02-17T04:33:16.951Z,12.20
2019-02-17T04:35:47.343Z,12.83
2019-02-17T04:38:17.588Z,11.60
2019-02-17T04:40:47.871Z,16.23
2019-02-17T04:43:18.194Z,11.73
2019-02-17T04:45:48.491Z,10.60
2019-02-17T04:48:18.734Z,10.70
2019-02-17T04:50:49.033Z,13.13
2019-02-17T04:53:19.316Z,16.30
2019-02-17T04:55:49.603Z,15.03
2019-02-17T04:58:19.961Z,14.10
2019-02-17T05:00:50.263Z,13.70
2019-02-17T05:03:20.502Z,16.37
2019-02-17T05:05:50.807Z,16.90
2019-02-17T05:08:21.232Z,13.63
2019-02-17T05:10:51.514Z,14.80
2019-02-17T05:13:21.762Z,14.57
2019-02-17T05:15:52.054Z,11.27
2019-02-17T05:18:22.412Z,11.80
2019-02-17T05:20:52.856Z,16.90
2019-02-17T05:23:23.092Z,18.50
2019-02-17T05:25:53.389Z,14.00
2019-02-17T05:28:23.731Z,16.87
2019-02-17T05:30:54.010Z,12.57
2019-02-17T05:33:24.307Z,13.30
2019-02-17T05:35:54.588Z,14.13
2019-02-17T05:38:24.847Z,16.80
2019-02-17T05:40:55.155Z,11.17
2019-02-17T05:43:25.499Z,13.13
2019-02-17T05:45:55.786Z,11.63
2019-02-17T05:48:26.078Z,10.23
2019-02-17T05:50:56.367Z,12.27
2019-02-17T05:53:26.674Z,9.10
2019-02-17T05:55:56.938Z,10.67
2019-02-17T05:58:27.195Z,9.30
2019-02-17T06:01:03.879Z,11.83
2019-02-17T06:03:29.560Z,18.90
2019-02-17T06:05:59.853Z,18.57
2019-02-17T06:08:30.154Z,17.87
2019-02-17T06:11:00.438Z,15.93
2019-02-17T06:13:30.723Z,16.27
2019-02-17T06:16:01.099Z,13.77
2019-02-17T06:18:31.485Z,11.87
2019-02-17T06:21:02.044Z,14.13
2019-02-17T06:23:32.540Z,16.67
2019-02-17T06:26:02.838Z,14.53
2019-02-17T06:28:33.274Z,16.63
2019-02-17T06:31:13.665Z,17.77
2019-02-17T06:33:35.558Z,24.17
2019-02-17T06:36:05.963Z,32.87
2019-02-17T06:38:36.302Z,31.87
2019-02-17T06:41:06.606Z,32.70
2019-02-17T06:43:36.856Z,28.07
2019-02-17T06:46:07.419Z,41.37
2019-02-17T06:48:37.779Z,32.10
2019-02-17T06:51:08.078Z,29.83
2019-02-17T06:53:38.364Z,33.40
2019-02-17T06:56:18.491Z,31.03
2019-02-17T06:58:48.726Z,32.83
2019-02-17T07:01:24.529Z,33.90
2019-02-17T07:03:51.551Z,28.07
2019-02-17T07:06:31.387Z,30.37
2019-02-17T07:09:01.609Z,30.67
2019-02-17T07:11:31.950Z,28.53
2019-02-17T07:14:02.283Z,28.90
2019-02-17T07:16:32.579Z,28.97
2019-02-17T07:19:02.824Z,29.47
2019-02-17T07:21:33.542Z,27.10
2019-02-17T07:24:04.071Z,26.43
2019-02-17T07:26:34.368Z,30.30
2019-02-17T07:29:04.740Z,28.97
2019-02-17T07:31:35.459Z,29.20
2019-02-17T07:34:05.923Z,28.83
2019-02-17T07:36:36.228Z,30.00
2019-02-17T07:39:07.471Z,35.73
2019-02-17T07:41:37.774Z,33.03
2019-02-17T07:44:08.041Z,34.20
2019-02-17T07:46:38.330Z,24.37
2019-02-17T07:49:08.675Z,19.10
2019-02-17T07:51:38.971Z,17.20
2019-02-17T07:54:09.212Z,16.60
2019-02-17T07:56:39.517Z,17.50
2019-02-17T07:59:09.865Z,19.70
2019-02-17T08:01:45.239Z,17.90
2019-02-17T08:04:12.129Z,17.17
2019-02-17T08:06:42.508Z,28.97
2019-02-17T08:09:12.829Z,17.67
2019-02-17T08:11:43.099Z,21.00
2019-02-17T08:14:13.380Z,18.60
2019-02-17T08:16:43.656Z,23.23
2019-02-17T08:19:13.908Z,17.60
2019-02-17T08:21:44.343Z,16.80
2019-02-17T08:24:15.117Z,15.70
2019-02-17T08:26:45.423Z,15.30
2019-02-17T08:29:15.657Z,17.90
2019-02-17T08:31:55.536Z,18.83
2019-02-17T08:34:19.014Z,15.27
2019-02-17T08:36:49.937Z,17.03
2019-02-17T08:39:20.262Z,24.37
2019-02-17T08:41:51.170Z,25.60
2019-02-17T08:44:22.474Z,21.80
2019-02-17T08:46:53.457Z,20.93
2019-02-17T08:49:24.004Z,17.63
2019-02-17T08:51:54.973Z,17.20
2019-02-17T08:54:26.466Z,20.23
2019-02-17T08:56:57.413Z,22.20
2019-02-17T08:59:27.975Z,20.17
2019-02-17T09:02:05.587Z,21.67
2019-02-17T09:04:32.020Z,14.37
2019-02-17T09:07:02.883Z,15.07
2019-02-17T09:09:33.456Z,14.70
2019-02-17T09:12:04.166Z,17.40
2019-02-17T09:14:35.161Z,18.00
2019-02-17T09:17:26.026Z,17.27
2019-02-17T09:19:56.656Z,17.00
2019-02-17T09:25:25.831Z,15.57
2019-02-17T09:28:20.692Z,15.50
2019-02-17T09:30:51.563Z,13.03
2019-02-17T09:33:22.055Z,12.77
2019-02-17T09:35:54.591Z,13.50
2019-02-17T09:38:25.069Z,15.23
2019-02-17T09:40:56.332Z,15.03
2019-02-17T09:43:27.690Z,14.40
2019-02-17T09:45:58.186Z,14.40
2019-02-17T09:48:28.716Z,12.03
2019-02-17T09:50:59.556Z,12.10
2019-02-17T09:53:31.003Z,13.20
2019-02-17T09:56:01.410Z,12.13
2019-02-17T09:58:31.742Z,11.70
2019-02-17T10:01:03.214Z,10.77
2019-02-17T10:03:34.251Z,11.43
2019-02-17T10:06:04.869Z,12.27
2019-02-17T10:08:35.498Z,12.70
2019-02-17T10:11:08.121Z,13.53
2019-02-17T10:13:58.688Z,11.60
2019-02-17T10:16:29.489Z,10.83
2019-02-17T10:19:00.469Z,12.20
2019-02-17T10:21:31.159Z,11.30
2019-02-17T10:24:01.511Z,10.77
2019-02-17T10:29:28.681Z,9.17
2019-02-17T10:31:59.386Z,11.30
2019-02-17T10:34:30.229Z,11.50
2019-02-17T10:37:01.608Z,18.90
2019-02-17T10:39:35.718Z,12.03
2019-02-17T10:42:06.073Z,12.40
2019-02-17T10:44:36.446Z,10.90
2019-02-17T10:47:07.407Z,8.67
2019-02-17T10:49:38.330Z,9.13
2019-02-17T10:52:08.927Z,12.13
2019-02-17T10:54:39.376Z,10.53
2019-02-17T10:57:10.867Z,11.00
2019-02-17T10:59:42.083Z,9.30
2019-02-17T11:02:13.550Z,10.87
2019-02-17T11:04:44.678Z,9.07
2019-02-17T11:07:15.204Z,8.70
2019-02-17T11:09:45.618Z,9.30
2019-02-17T11:12:36.522Z,8.27
2019-02-17T11:15:09.018Z,9.07
2019-02-17T11:17:39.601Z,9.27
2019-02-17T11:20:10.260Z,7.00
2019-02-17T11:22:41.746Z,7.33
2019-02-17T11:25:12.963Z,5.03
2019-02-17T11:27:43.471Z,7.70
2019-02-17T11:30:15.087Z,7.83
2019-02-17T11:32:45.993Z,7.83
2019-02-17T11:35:17.031Z,5.63
2019-02-17T11:37:47.553Z,6.33
2019-02-17T11:40:18.922Z,5.70
2019-02-17T11:42:49.410Z,5.73
2019-02-17T11:45:20.223Z,6.90
2019-02-17T11:47:51.225Z,5.47
2019-02-17T11:50:22.784Z,4.33
2019-02-17T11:52:53.156Z,3.80
2019-02-17T11:55:23.774Z,5.60
2019-02-17T11:57:54.975Z,5.37
2019-02-17T12:00:26.124Z,5.00
2019-02-17T12:02:56.609Z,4.17
2019-02-17T12:05:27.242Z,4.33
2019-02-17T12:07:58.289Z,3.40
2019-02-17T12:10:29.681Z,4.50
2019-02-17T12:13:00.153Z,6.37
2019-02-17T12:15:30.883Z,4.03
2019-02-17T12:18:02.196Z,4.70
2019-02-17T12:20:50.150Z,4.17
2019-02-17T12:23:29.331Z,3.80
2019-02-17T12:26:27.456Z,3.17
2019-02-17T12:29:02.898Z,3.93
2019-02-17T12:31:36.641Z,3.00
2019-02-17T12:34:08.008Z,3.30
2019-02-17T12:36:38.680Z,4.20
2019-02-17T12:39:10.317Z,3.27
2019-02-17T12:41:40.976Z,3.17
2019-02-17T12:44:12.175Z,3.63
2019-02-17T12:46:43.221Z,5.00
2019-02-17T12:49:13.797Z,3.43
2019-02-17T12:51:44.413Z,3.90
2019-02-17T12:54:15.605Z,3.23
2019-02-17T12:56:46.853Z,4.97
2019-02-17T12:59:17.349Z,6.73
2019-02-17T13:01:48.319Z,3.77
2019-02-17T13:04:18.918Z,2.93
2019-02-17T13:06:49.545Z,4.40
2019-02-17T13:09:27.387Z,5.10
2019-02-17T13:11:58.451Z,5.57
2019-02-17T13:14:28.923Z,4.53
2019-02-17T13:16:59.470Z,11.30
2019-02-17T13:19:30.815Z,6.43
2019-02-17T13:22:01.897Z,4.70
2019-02-17T13:24:32.478Z,4.20
2019-02-17T13:27:03.099Z,5.60
2019-02-17T13:29:34.197Z,4.60
2019-02-17T13:32:05.330Z,5.60
2019-02-17T13:34:37.204Z,6.20
2019-02-17T13:37:07.658Z,5.07
2019-02-17T13:39:39.364Z,6.10
2019-02-17T13:42:10.164Z,6.30
2019-02-17T13:44:41.349Z,9.67
2019-02-17T13:47:12.362Z,9.30
2019-02-17T13:49:42.868Z,9.63
2019-02-17T13:52:13.408Z,9.50
2019-02-17T13:54:44.258Z,7.40
2019-02-17T13:57:15.829Z,6.80
2019-02-17T13:59:46.434Z,7.70
2019-02-17T14:02:17.164Z,6.20
2019-02-17T14:04:48.631Z,7.47
2019-02-17T14:07:19.837Z,9.93
2019-02-17T14:09:50.270Z,10.37
2019-02-17T14:12:20.698Z,8.80
2019-02-17T14:14:52.248Z,9.90
2019-02-17T14:17:23.686Z,9.33
2019-02-17T14:19:54.130Z,10.90
2019-02-17T14:22:24.659Z,11.00
2019-02-17T14:24:55.758Z,11.00
2019-02-17T14:27:26.590Z,10.10
2019-02-17T14:29:57.184Z,13.07
2019-02-17T14:32:27.778Z,13.50
2019-02-17T14:34:58.784Z,12.77
2019-02-17T14:37:30.240Z,15.43
2019-02-17T14:40:00.712Z,19.30
2019-02-17T14:45:29.644Z,24.23
2019-02-17T14:48:00.791Z,30.93
2019-02-17T14:50:31.771Z,22.70
2019-02-17T14:53:02.222Z,28.00
2019-02-17T14:55:32.885Z,37.20
2019-02-17T14:58:05.675Z,41.87
2019-02-17T15:00:37.059Z,46.30
2019-02-17T15:03:07.868Z,35.50
2019-02-17T15:05:38.773Z,36.87
2019-02-17T15:08:09.483Z,35.60
2019-02-17T15:10:39.961Z,37.23
2019-02-17T15:13:11.392Z,54.07
2019-02-17T15:15:42.584Z,40.77
2019-02-17T15:18:13.372Z,31.73
2019-02-17T15:20:45.567Z,30.20
2019-02-17T15:23:15.910Z,29.90
2019-02-17T15:25:46.194Z,43.70
2019-02-17T15:28:16.449Z,40.30
2019-02-17T15:30:46.746Z,36.27
2019-02-17T15:33:17.102Z,48.10
2019-02-17T15:35:47.377Z,50.60
2019-02-17T15:38:17.639Z,37.60
2019-02-17T15:40:48.063Z,34.70
2019-02-17T15:43:18.327Z,30.87
2019-02-17T15:45:49.045Z,35.03
2019-02-17T15:48:19.526Z,38.93
2019-02-17T15:50:49.838Z,43.10
2019-02-17T15:53:20.191Z,36.00
2019-02-17T15:55:50.565Z,36.33
2019-02-17T15:58:20.910Z,37.67
2019-02-17T16:00:51.238Z,30.77
2019-02-17T16:03:21.462Z,32.83
2019-02-17T16:05:51.750Z,34.63
2019-02-17T16:08:22.086Z,29.37
2019-02-17T16:10:52.383Z,25.13
2019-02-17T16:13:22.662Z,49.70
2019-02-17T16:15:52.984Z,52.17
2019-02-17T16:18:23.323Z,30.90
2019-02-17T16:20:53.601Z,37.70
2019-02-17T16:23:23.907Z,46.13
2019-02-17T16:25:54.188Z,46.73
2019-02-17T16:28:24.473Z,49.83
2019-02-17T16:30:54.799Z,54.07
2019-02-17T16:33:25.166Z,51.77
2019-02-17T16:35:55.465Z,48.60
2019-02-17T16:38:25.714Z,49.73
2019-02-17T16:40:56.004Z,49.87
2019-02-17T16:43:26.352Z,48.50
2019-02-17T16:45:56.747Z,39.10
2019-02-17T16:48:27.011Z,36.50
2019-02-17T16:50:57.335Z,45.30
2019-02-17T16:53:27.707Z,42.07
2019-02-17T16:55:58.008Z,31.30
2019-02-17T16:58:28.245Z,31.60
2019-02-17T17:00:58.568Z,21.70
2019-02-17T17:03:28.839Z,20.33
2019-02-17T17:05:59.216Z,20.37
2019-02-17T17:08:29.573Z,22.97
2019-02-17T17:10:59.870Z,26.47
2019-02-17T17:13:30.122Z,27.17
2019-02-17T17:16:00.450Z,27.00
2019-02-17T17:18:30.800Z,38.03
2019-02-17T17:21:01.081Z,53.70
2019-02-17T17:23:31.311Z,49.03
2019-02-17T17:26:01.682Z,52.47
2019-02-17T17:28:32.047Z,64.83
2019-02-17T17:31:02.363Z,74.10
2019-02-17T17:33:32.657Z,68.73
2019-02-17T17:36:02.997Z,67.10
2019-02-17T17:38:33.315Z,46.17
2019-02-17T17:41:03.600Z,39.57
2019-02-17T17:43:33.887Z,42.57
2019-02-17T17:46:04.380Z,45.53
2019-02-17T17:48:34.760Z,50.30
2019-02-17T17:51:05.287Z,49.40
2019-02-17T17:53:35.729Z,37.90
2019-02-17T17:56:06.048Z,39.33
2019-02-17T17:58:36.290Z,36.63
2019-02-17T18:01:07.859Z,34.30
2019-02-17T18:03:38.488Z,33.97
2019-02-17T18:06:08.762Z,42.17
2019-02-17T18:08:39.012Z,41.60
2019-02-17T18:11:09.316Z,34.30
2019-02-17T18:13:39.668Z,32.10
2019-02-17T18:16:09.963Z,30.53
2019-02-17T18:18:40.196Z,35.30
2019-02-17T18:21:10.556Z,28.23
2019-02-17T18:23:41.650Z,33.10
2019-02-17T18:26:11.956Z,31.47
2019-02-17T18:28:42.284Z,33.13
2019-02-17T18:31:12.552Z,35.30
2019-02-17T18:33:42.785Z,42.57
2019-02-17T18:36:13.079Z,33.63
2019-02-17T18:38:43.438Z,33.70
2019-02-17T18:41:13.732Z,43.50
2019-02-17T18:43:44.002Z,45.40
2019-02-17T18:46:14.317Z,41.30
2019-02-17T18:48:44.760Z,36.93
2019-02-17T18:51:15.042Z,33.33
2019-02-17T18:53:45.281Z,38.70
2019-02-17T18:56:15.578Z,32.77
2019-02-17T18:58:45.932Z,36.30
2019-02-17T19:01:16.768Z,45.13
2019-02-17T19:03:47.067Z,40.90
2019-02-17T19:06:17.375Z,35.60
2019-02-17T19:08:47.695Z,31.33
2019-02-17T19:11:17.982Z,24.87
2019-02-17T19:13:48.325Z,17.57
2019-02-17T19:16:18.608Z,19.00
2019-02-17T19:18:48.882Z,24.87
2019-02-17T19:21:19.182Z,28.60
2019-02-17T19:23:49.595Z,32.30
2019-02-17T19:26:19.886Z,28.27
2019-02-17T19:28:50.132Z,20.83
2019-02-17T19:31:20.421Z,15.30
2019-02-17T19:33:50.751Z,15.20
2019-02-17T19:36:21.025Z,18.53
2019-02-17T19:38:51.273Z,20.80
2019-02-17T19:41:21.588Z,18.77
2019-02-17T19:43:51.917Z,17.90
2019-02-17T19:46:22.456Z,18.20
2019-02-17T19:48:52.850Z,19.77
2019-02-17T19:51:23.308Z,19.17
2019-02-17T19:53:53.784Z,23.93
2019-02-17T19:56:24.077Z,17.47
2019-02-17T19:58:54.336Z,58.07
2019-02-17T20:01:24.608Z,53.37
2019-02-17T20:04:04.397Z,29.73
2019-02-17T20:06:34.686Z,35.23
2019-02-17T20:09:07.447Z,31.30
2019-02-17T20:11:37.783Z,27.27
2019-02-17T20:14:08.136Z,29.30
2019-02-17T20:16:38.421Z,29.77
2019-02-17T20:19:08.688Z,24.87
2019-02-17T20:21:38.952Z,27.33
2019-02-17T20:24:09.227Z,22.50
2019-02-17T20:26:39.526Z,21.20
2019-02-17T20:29:11.886Z,21.30
2019-02-17T20:31:41.885Z,17.13
2019-02-17T20:34:14.502Z,19.20
2019-02-17T20:36:44.182Z,17.00
2019-02-17T20:39:14.522Z,18.30
2019-02-17T20:41:44.804Z,18.73
2019-02-17T20:44:15.098Z,18.23
2019-02-17T20:46:45.544Z,15.90
2019-02-17T20:49:16.004Z,27.47
2019-02-17T20:51:46.404Z,29.10
2019-02-17T20:54:16.671Z,21.60
2019-02-17T20:56:46.969Z,16.03
2019-02-17T20:59:17.307Z,14.87
2019-02-17T21:01:47.587Z,15.00
2019-02-17T21:04:17.899Z,15.73
2019-02-17T21:06:48.166Z,22.83
2019-02-17T21:09:18.409Z,23.43
2019-02-17T21:11:48.704Z,20.67
2019-02-17T21:14:19.030Z,45.97
2019-02-17T21:16:49.316Z,29.80
2019-02-17T21:19:19.565Z,21.43
2019-02-17T21:21:49.885Z,21.63
2019-02-17T21:24:20.238Z,18.53
2019-02-17T21:26:50.599Z,19.87
2019-02-17T21:29:20.845Z,17.27
2019-02-17T21:31:51.130Z,18.63
2019-02-17T21:34:21.487Z,18.30
2019-02-17T21:36:51.790Z,13.57
2019-02-17T21:39:22.034Z,13.23
2019-02-17T21:41:52.347Z,13.80
2019-02-17T21:44:22.649Z,12.97
2019-02-17T21:46:52.960Z,14.03
2019-02-17T21:49:23.417Z,12.13
2019-02-17T21:51:54.226Z,12.87
2019-02-17T21:54:24.448Z,10.63
2019-02-17T21:56:54.731Z,9.37
2019-02-17T21:59:25.183Z,9.17
2019-02-17T22:01:55.469Z,8.80
2019-02-17T22:04:25.734Z,9.17
2019-02-17T22:06:56.135Z,9.47
2019-02-17T22:09:26.458Z,9.20
2019-02-17T22:11:56.738Z,12.03
2019-02-17T22:14:26.952Z,8.73
2019-02-17T22:16:57.281Z,8.43
2019-02-17T22:19:27.669Z,7.30
2019-02-17T22:21:58.001Z,8.73
2019-02-17T22:24:28.284Z,6.80
2019-02-17T22:26:58.552Z,7.47
2019-02-17T22:29:28.781Z,8.37
2019-02-17T22:31:59.078Z,7.53
2019-02-17T22:34:29.414Z,7.23
2019-02-17T22:36:59.714Z,9.13
2019-02-17T22:39:29.946Z,8.93
2019-02-17T22:42:00.249Z,7.97
2019-02-17T22:44:30.587Z,8.70
2019-02-17T22:47:00.870Z,9.83
2019-02-17T22:49:31.228Z,9.13
2019-02-17T22:52:01.627Z,9.33
2019-02-17T22:54:31.960Z,9.30
2019-02-17T22:57:02.250Z,8.67
2019-02-17T22:59:32.494Z,8.30
2019-02-17T23:02:02.877Z,8.73
2019-02-17T23:04:33.146Z,8.90
2019-02-17T23:07:03.422Z,9.77
2019-02-17T23:09:33.749Z,9.83
2019-02-17T23:12:04.100Z,9.37
2019-02-17T23:14:34.331Z,8.10
2019-02-17T23:17:04.625Z,6.17
2019-02-17T23:19:34.948Z,6.97
2019-02-17T23:22:05.372Z,13.20
2019-02-17T23:24:35.585Z,8.50
2019-02-17T23:27:05.850Z,7.27
2019-02-17T23:29:36.190Z,9.20
2019-02-17T23:32:06.544Z,10.03
2019-02-17T23:34:36.783Z,9.00
2019-02-17T23:37:07.085Z,7.17
2019-02-17T23:39:37.391Z,9.37
2019-02-17T23:42:07.735Z,7.60
2019-02-17T23:44:38.036Z,7.07
2019-02-17T23:47:08.315Z,6.80
2019-02-17T23:49:38.922Z,7.40
2019-02-17T23:52:09.467Z,6.27
2019-02-17T23:54:39.906Z,7.47
2019-02-17T23:57:10.295Z,8.33
2019-02-17T23:59:40.570Z,7.37
